Impacts TAF Board
For situational awareness. Not to be used for flight planning purposes.
IDs:

KTCL - Tuscaloosa Rgnl, AL, US

Issued at 1925 UTC 07 Dec 2021
Updated at 1939 UTC 07 Dec 2021
Potential Impact None Slight Moderate High
Time1853Z 07/20Z 07/21Z 07/22Z 07/23Z 08/00Z 08/01Z 08/02Z 08/03Z 08/04Z 08/05Z 08/06Z 08/07Z 08/08Z>>
Type OBS PRVL PRVL PRVL PRVL PRVL PRVL PRVL PRVL PRVL PRVL PRVL PRVL PRVL
VIS 10 >6 >6 >6 >6 >6 >6 >6 >6 >6 >6 >6 >6 >6
CIG 29 25 25 25 25 20 20 20 20 20 20 20 20 9
Cover OVC OVC OVC OVC OVC BKN BKN BKN BKN BKN BKN BKN BKN OVC
FltCat MVFR MVFR MVFR MVFR MVFR MVFR MVFR MVFR MVFR MVFR MVFR MVFR MVFR IFR
WX -- VCSH VCSH VCSH VCSH -- -- -- -- -- -- -- -- --
WDir 50 50 50 50 50 VRB VRB VRB VRB VRB VRB VRB VRB VRB
WSpd 5 5 5 5 5 0 0 0 0 0 0 0 0 0
WGst -- -- -- -- -- -- -- -- -- -- -- -- -- --
WSHgt -- -- -- -- -- -- -- -- -- -- -- -- -- --
WSDir -- -- -- -- -- -- -- -- -- -- -- -- -- --
WSSpd -- -- -- -- -- -- -- -- -- -- -- -- -- --
Raw TAF
KTCL 071925Z 0719/0818 05005KT P6SM VCSH OVC025
  FM080000 00000KT P6SM BKN020
  FM080800 00000KT P6SM OVC009
  FM081500 VRB04KT P6SM BKN007
  FM081700 34005KT P6SM SCT013


Raw METAR
KTCL 071853Z 05005KT 10SM OVC029 08/02 A3011 RMK AO2 RAE22 PRESFR SLP195 P0001 T00830017
KTCL 071753Z 07004KT 9SM -RA OVC037 08/00 A3014 RMK AO2 RAB46 SLP207 P0000 60000 T00780000 10083 20028 58024
KTCL 071653Z 03008KT 10SM FEW035 OVC044 08/00 A3018 RMK AO2 SLP220 T00830000

METAR Board
Radar Display
Forecast Discussion
For situational awareness. Not to be used for flight planning purposes.